sensor_id;sensor_type;location;lat;lon;timestamp;P1;durP1;ratioP1;P2;durP2;ratioP2
11548;SDS011;61444;59.472;18.306;2023-02-14T00:01:22;4.03;;;1.10;;
11548;SDS011;61444;59.472;18.306;2023-02-14T00:03:33;1.87;;;1.03;;
11548;SDS011;61444;59.472;18.306;2023-02-14T00:05:42;1.77;;;1.00;;
11548;SDS011;61444;59.472;18.306;2023-02-14T00:07:50;1.87;;;0.90;;
11548;SDS011;61444;59.472;18.306;2023-02-14T00:09:59;2.77;;;0.90;;
11548;SDS011;61444;59.472;18.306;2023-02-14T00:12:08;2.43;;;1.10;;
11548;SDS011;61444;59.472;18.306;2023-02-14T00:14:16;3.10;;;0.83;;
11548;SDS011;61444;59.472;18.306;2023-02-14T00:16:43;1.47;;;1.00;;
11548;SDS011;61444;59.472;18.306;2023-02-14T00:18:53;1.50;;;0.90;;
11548;SDS011;61444;59.472;18.306;2023-02-14T00:21:11;1.50;;;0.90;;
11548;SDS011;61444;59.472;18.306;2023-02-14T00:23:19;2.10;;;0.87;;
11548;SDS011;61444;59.472;18.306;2023-02-14T00:25:28;1.00;;;0.80;;
11548;SDS011;61444;59.472;18.306;2023-02-14T00:27:37;1.60;;;1.00;;
11548;SDS011;61444;59.472;18.306;2023-02-14T00:29:46;1.10;;;0.90;;
11548;SDS011;61444;59.472;18.306;2023-02-14T00:31:55;2.23;;;1.03;;
11548;SDS011;61444;59.472;18.306;2023-02-14T00:34:06;2.97;;;0.90;;
11548;SDS011;61444;59.472;18.306;2023-02-14T00:36:15;1.47;;;1.07;;
11548;SDS011;61444;59.472;18.306;2023-02-14T00:38:25;2.57;;;1.07;;
11548;SDS011;61444;59.472;18.306;2023-02-14T00:40:35;2.27;;;0.90;;
11548;SDS011;61444;59.472;18.306;2023-02-14T00:42:44;3.33;;;1.00;;
11548;SDS011;61444;59.472;18.306;2023-02-14T00:44:52;1.83;;;1.10;;
11548;SDS011;61444;59.472;18.306;2023-02-14T00:47:01;1.53;;;0.90;;
11548;SDS011;61444;59.472;18.306;2023-02-14T00:49:12;1.63;;;1.10;;
11548;SDS011;61444;59.472;18.306;2023-02-14T00:51:21;1.73;;;1.00;;
11548;SDS011;61444;59.472;18.306;2023-02-14T00:53:30;1.20;;;1.00;;
11548;SDS011;61444;59.472;18.306;2023-02-14T00:55:43;1.97;;;1.10;;
11548;SDS011;61444;59.472;18.306;2023-02-14T00:57:53;1.67;;;0.90;;
11548;SDS011;61444;59.472;18.306;2023-02-14T01:00:06;1.17;;;0.77;;
11548;SDS011;61444;59.472;18.306;2023-02-14T01:02:15;1.10;;;0.90;;
11548;SDS011;61444;59.472;18.306;2023-02-14T01:04:25;2.73;;;1.20;;
11548;SDS011;61444;59.472;18.306;2023-02-14T01:06:33;2.37;;;0.90;;
11548;SDS011;61444;59.472;18.306;2023-02-14T01:08:42;4.50;;;0.90;;
11548;SDS011;61444;59.472;18.306;2023-02-14T01:10:52;1.30;;;0.80;;
11548;SDS011;61444;59.472;18.306;2023-02-14T01:13:01;2.00;;;1.00;;
11548;SDS011;61444;59.472;18.306;2023-02-14T01:15:10;1.60;;;0.80;;
11548;SDS011;61444;59.472;18.306;2023-02-14T01:17:18;1.57;;;1.10;;
11548;SDS011;61444;59.472;18.306;2023-02-14T01:19:29;1.90;;;0.90;;
11548;SDS011;61444;59.472;18.306;2023-02-14T01:21:38;2.87;;;1.10;;
11548;SDS011;61444;59.472;18.306;2023-02-14T01:23:47;1.17;;;1.00;;
11548;SDS011;61444;59.472;18.306;2023-02-14T01:25:56;2.53;;;1.10;;
11548;SDS011;61444;59.472;18.306;2023-02-14T01:28:08;2.33;;;0.90;;
11548;SDS011;61444;59.472;18.306;2023-02-14T01:30:17;2.87;;;1.40;;
11548;SDS011;61444;59.472;18.306;2023-02-14T01:32:28;1.50;;;1.00;;
11548;SDS011;61444;59.472;18.306;2023-02-14T01:34:42;1.77;;;1.20;;
11548;SDS011;61444;59.472;18.306;2023-02-14T01:36:55;1.87;;;0.90;;
11548;SDS011;61444;59.472;18.306;2023-02-14T01:39:05;4.03;;;0.90;;
11548;SDS011;61444;59.472;18.306;2023-02-14T01:41:17;2.90;;;1.10;;
11548;SDS011;61444;59.472;18.306;2023-02-14T01:43:26;1.83;;;0.90;;
11548;SDS011;61444;59.472;18.306;2023-02-14T01:45:38;1.93;;;1.00;;
11548;SDS011;61444;59.472;18.306;2023-02-14T01:47:48;1.83;;;1.00;;
11548;SDS011;61444;59.472;18.306;2023-02-14T01:50:01;2.87;;;1.20;;
11548;SDS011;61444;59.472;18.306;2023-02-14T01:52:12;1.77;;;1.20;;
11548;SDS011;61444;59.472;18.306;2023-02-14T01:54:22;1.53;;;1.10;;
11548;SDS011;61444;59.472;18.306;2023-02-14T01:56:32;1.90;;;0.90;;
11548;SDS011;61444;59.472;18.306;2023-02-14T01:58:43;1.43;;;0.90;;
11548;SDS011;61444;59.472;18.306;2023-02-14T02:00:57;2.03;;;0.80;;
11548;SDS011;61444;59.472;18.306;2023-02-14T02:03:06;1.77;;;0.90;;
11548;SDS011;61444;59.472;18.306;2023-02-14T02:05:17;2.00;;;1.13;;
11548;SDS011;61444;59.472;18.306;2023-02-14T02:07:29;1.83;;;1.03;;
11548;SDS011;61444;59.472;18.306;2023-02-14T02:09:41;2.87;;;1.17;;
11548;SDS011;61444;59.472;18.306;2023-02-14T02:11:52;1.27;;;0.80;;
11548;SDS011;61444;59.472;18.306;2023-02-14T02:14:02;1.57;;;0.90;;
11548;SDS011;61444;59.472;18.306;2023-02-14T02:16:18;2.27;;;1.17;;
11548;SDS011;61444;59.472;18.306;2023-02-14T02:18:32;1.37;;;0.90;;
11548;SDS011;61444;59.472;18.306;2023-02-14T02:23:14;1.90;;;1.00;;
11548;SDS011;61444;59.472;18.306;2023-02-14T02:25:36;2.67;;;1.23;;
11548;SDS011;61444;59.472;18.306;2023-02-14T02:27:56;1.47;;;0.97;;
11548;SDS011;61444;59.472;18.306;2023-02-14T02:32:43;2.50;;;1.00;;
11548;SDS011;61444;59.472;18.306;2023-02-14T02:37:35;2.47;;;1.00;;
11548;SDS011;61444;59.472;18.306;2023-02-14T02:39:51;2.30;;;1.00;;
11548;SDS011;61444;59.472;18.306;2023-02-14T02:42:07;1.33;;;0.80;;
11548;SDS011;61444;59.472;18.306;2023-02-14T02:44:20;3.73;;;0.90;;
11548;SDS011;61444;59.472;18.306;2023-02-14T02:46:33;1.43;;;1.10;;
11548;SDS011;61444;59.472;18.306;2023-02-14T02:48:55;2.30;;;1.00;;
11548;SDS011;61444;59.472;18.306;2023-02-14T02:51:05;1.80;;;0.90;;
11548;SDS011;61444;59.472;18.306;2023-02-14T02:53:36;2.30;;;1.10;;
11548;SDS011;61444;59.472;18.306;2023-02-14T02:55:46;2.17;;;1.00;;
11548;SDS011;61444;59.472;18.306;2023-02-14T02:58:16;1.83;;;0.70;;
11548;SDS011;61444;59.472;18.306;2023-02-14T03:00:27;1.10;;;1.00;;
11548;SDS011;61444;59.472;18.306;2023-02-14T03:02:40;1.70;;;0.90;;
11548;SDS011;61444;59.472;18.306;2023-02-14T03:05:09;1.93;;;1.00;;
11548;SDS011;61444;59.472;18.306;2023-02-14T03:07:18;2.73;;;1.00;;
11548;SDS011;61444;59.472;18.306;2023-02-14T03:09:52;1.00;;;0.80;;
11548;SDS011;61444;59.472;18.306;2023-02-14T03:12:11;1.87;;;1.00;;
11548;SDS011;61444;59.472;18.306;2023-02-14T03:14:28;2.13;;;0.97;;
11548;SDS011;61444;59.472;18.306;2023-02-14T03:16:47;1.63;;;0.90;;
11548;SDS011;61444;59.472;18.306;2023-02-14T03:21:51;1.53;;;0.93;;
11548;SDS011;61444;59.472;18.306;2023-02-14T03:24:04;2.43;;;1.27;;
11548;SDS011;61444;59.472;18.306;2023-02-14T03:26:17;2.43;;;0.97;;
11548;SDS011;61444;59.472;18.306;2023-02-14T03:28:28;3.10;;;1.00;;
11548;SDS011;61444;59.472;18.306;2023-02-14T03:30:40;2.10;;;1.27;;
11548;SDS011;61444;59.472;18.306;2023-02-14T03:32:55;4.80;;;1.30;;
11548;SDS011;61444;59.472;18.306;2023-02-14T03:35:08;2.53;;;0.87;;
11548;SDS011;61444;59.472;18.306;2023-02-14T03:37:19;3.07;;;1.10;;
11548;SDS011;61444;59.472;18.306;2023-02-14T03:39:31;2.07;;;1.30;;
11548;SDS011;61444;59.472;18.306;2023-02-14T03:41:45;1.63;;;0.90;;
11548;SDS011;61444;59.472;18.306;2023-02-14T03:43:55;1.87;;;0.87;;
11548;SDS011;61444;59.472;18.306;2023-02-14T03:46:05;4.47;;;1.00;;
11548;SDS011;61444;59.472;18.306;2023-02-14T03:48:16;2.53;;;1.00;;
11548;SDS011;61444;59.472;18.306;2023-02-14T03:50:26;4.83;;;1.30;;
11548;SDS011;61444;59.472;18.306;2023-02-14T03:52:35;3.93;;;1.03;;
11548;SDS011;61444;59.472;18.306;2023-02-14T03:54:45;2.10;;;1.07;;
11548;SDS011;61444;59.472;18.306;2023-02-14T03:57:00;1.20;;;1.00;;
11548;SDS011;61444;59.472;18.306;2023-02-14T03:59:12;1.87;;;0.90;;
11548;SDS011;61444;59.472;18.306;2023-02-14T04:01:22;2.17;;;1.10;;
11548;SDS011;61444;59.472;18.306;2023-02-14T04:03:32;2.30;;;0.80;;
11548;SDS011;61444;59.472;18.306;2023-02-14T04:05:42;3.03;;;1.20;;
11548;SDS011;61444;59.472;18.306;2023-02-14T04:07:58;2.20;;;1.17;;
11548;SDS011;61444;59.472;18.306;2023-02-14T04:10:07;2.77;;;1.30;;
11548;SDS011;61444;59.472;18.306;2023-02-14T04:12:18;2.43;;;1.03;;
11548;SDS011;61444;59.472;18.306;2023-02-14T04:14:42;2.70;;;1.17;;
11548;SDS011;61444;59.472;18.306;2023-02-14T04:16:51;4.57;;;1.07;;
11548;SDS011;61444;59.472;18.306;2023-02-14T04:19:17;3.87;;;1.23;;
11548;SDS011;61444;59.472;18.306;2023-02-14T04:21:32;1.83;;;0.90;;
11548;SDS011;61444;59.472;18.306;2023-02-14T04:23:40;2.07;;;1.20;;
11548;SDS011;61444;59.472;18.306;2023-02-14T04:25:49;3.67;;;1.10;;
11548;SDS011;61444;59.472;18.306;2023-02-14T04:27:59;2.50;;;1.43;;
11548;SDS011;61444;59.472;18.306;2023-02-14T04:30:08;2.80;;;1.30;;
11548;SDS011;61444;59.472;18.306;2023-02-14T04:32:19;3.30;;;1.83;;
11548;SDS011;61444;59.472;18.306;2023-02-14T04:34:28;3.70;;;2.07;;
11548;SDS011;61444;59.472;18.306;2023-02-14T04:36:36;1.97;;;1.03;;
11548;SDS011;61444;59.472;18.306;2023-02-14T04:38:47;1.60;;;1.30;;
11548;SDS011;61444;59.472;18.306;2023-02-14T04:40:56;3.27;;;1.40;;
11548;SDS011;61444;59.472;18.306;2023-02-14T04:43:07;2.67;;;1.13;;
11548;SDS011;61444;59.472;18.306;2023-02-14T04:45:16;2.43;;;1.30;;
11548;SDS011;61444;59.472;18.306;2023-02-14T04:47:25;2.43;;;1.40;;
11548;SDS011;61444;59.472;18.306;2023-02-14T04:49:34;1.73;;;1.30;;
11548;SDS011;61444;59.472;18.306;2023-02-14T04:51:43;3.07;;;1.30;;
11548;SDS011;61444;59.472;18.306;2023-02-14T04:53:51;2.10;;;1.30;;
11548;SDS011;61444;59.472;18.306;2023-02-14T04:56:00;3.47;;;1.40;;
11548;SDS011;61444;59.472;18.306;2023-02-14T04:58:10;3.90;;;2.07;;
11548;SDS011;61444;59.472;18.306;2023-02-14T05:00:19;2.90;;;1.50;;
11548;SDS011;61444;59.472;18.306;2023-02-14T05:02:29;4.20;;;1.40;;
11548;SDS011;61444;59.472;18.306;2023-02-14T05:04:38;3.67;;;1.50;;
11548;SDS011;61444;59.472;18.306;2023-02-14T05:06:46;2.10;;;1.40;;
11548;SDS011;61444;59.472;18.306;2023-02-14T05:08:55;2.47;;;1.40;;
11548;SDS011;61444;59.472;18.306;2023-02-14T05:11:06;2.30;;;1.60;;
11548;SDS011;61444;59.472;18.306;2023-02-14T05:13:16;3.60;;;1.90;;
11548;SDS011;61444;59.472;18.306;2023-02-14T05:15:25;5.23;;;1.80;;
11548;SDS011;61444;59.472;18.306;2023-02-14T05:17:33;2.07;;;1.50;;
11548;SDS011;61444;59.472;18.306;2023-02-14T05:19:42;2.17;;;1.40;;
11548;SDS011;61444;59.472;18.306;2023-02-14T05:21:58;1.83;;;1.23;;
11548;SDS011;61444;59.472;18.306;2023-02-14T05:24:23;4.93;;;1.40;;
11548;SDS011;61444;59.472;18.306;2023-02-14T05:26:32;2.67;;;1.70;;
11548;SDS011;61444;59.472;18.306;2023-02-14T05:28:42;2.13;;;1.40;;
11548;SDS011;61444;59.472;18.306;2023-02-14T05:30:53;3.50;;;1.80;;
11548;SDS011;61444;59.472;18.306;2023-02-14T05:33:09;5.37;;;1.60;;
11548;SDS011;61444;59.472;18.306;2023-02-14T05:35:20;4.07;;;1.60;;
11548;SDS011;61444;59.472;18.306;2023-02-14T05:37:30;2.73;;;1.60;;
11548;SDS011;61444;59.472;18.306;2023-02-14T05:39:39;2.60;;;1.93;;
11548;SDS011;61444;59.472;18.306;2023-02-14T05:41:48;5.23;;;1.87;;
11548;SDS011;61444;59.472;18.306;2023-02-14T05:43:58;3.93;;;2.23;;
11548;SDS011;61444;59.472;18.306;2023-02-14T05:46:07;11.70;;;9.30;;
11548;SDS011;61444;59.472;18.306;2023-02-14T05:48:16;11.37;;;8.23;;
11548;SDS011;61444;59.472;18.306;2023-02-14T05:50:25;13.97;;;10.70;;
11548;SDS011;61444;59.472;18.306;2023-02-14T05:52:33;21.77;;;15.43;;
11548;SDS011;61444;59.472;18.306;2023-02-14T05:54:42;9.83;;;6.03;;
11548;SDS011;61444;59.472;18.306;2023-02-14T05:56:51;4.93;;;2.73;;
11548;SDS011;61444;59.472;18.306;2023-02-14T05:59:01;4.43;;;2.53;;
11548;SDS011;61444;59.472;18.306;2023-02-14T06:01:10;4.23;;;2.30;;
11548;SDS011;61444;59.472;18.306;2023-02-14T06:03:18;5.07;;;3.00;;
11548;SDS011;61444;59.472;18.306;2023-02-14T06:05:27;3.90;;;2.97;;
11548;SDS011;61444;59.472;18.306;2023-02-14T06:07:36;3.83;;;2.80;;
11548;SDS011;61444;59.472;18.306;2023-02-14T06:09:44;6.33;;;2.90;;
11548;SDS011;61444;59.472;18.306;2023-02-14T06:11:53;5.23;;;2.70;;
11548;SDS011;61444;59.472;18.306;2023-02-14T06:14:04;4.03;;;2.97;;
11548;SDS011;61444;59.472;18.306;2023-02-14T06:16:14;3.93;;;2.70;;
11548;SDS011;61444;59.472;18.306;2023-02-14T06:18:22;4.83;;;2.87;;
11548;SDS011;61444;59.472;18.306;2023-02-14T06:20:34;3.53;;;2.93;;
11548;SDS011;61444;59.472;18.306;2023-02-14T06:22:43;4.57;;;3.20;;
11548;SDS011;61444;59.472;18.306;2023-02-14T06:24:51;6.17;;;3.10;;
11548;SDS011;61444;59.472;18.306;2023-02-14T06:27:00;4.73;;;2.97;;
11548;SDS011;61444;59.472;18.306;2023-02-14T06:29:10;7.73;;;3.43;;
11548;SDS011;61444;59.472;18.306;2023-02-14T06:31:22;4.50;;;3.20;;
11548;SDS011;61444;59.472;18.306;2023-02-14T06:33:31;6.13;;;3.13;;
11548;SDS011;61444;59.472;18.306;2023-02-14T06:35:40;6.43;;;3.33;;
11548;SDS011;61444;59.472;18.306;2023-02-14T06:37:49;4.37;;;2.90;;
11548;SDS011;61444;59.472;18.306;2023-02-14T06:40:00;5.77;;;3.03;;
11548;SDS011;61444;59.472;18.306;2023-02-14T06:42:09;4.73;;;2.70;;
11548;SDS011;61444;59.472;18.306;2023-02-14T06:44:21;5.50;;;2.87;;
11548;SDS011;61444;59.472;18.306;2023-02-14T06:46:30;4.20;;;2.93;;
11548;SDS011;61444;59.472;18.306;2023-02-14T06:48:39;3.63;;;2.90;;
11548;SDS011;61444;59.472;18.306;2023-02-14T06:50:47;5.60;;;3.30;;
11548;SDS011;61444;59.472;18.306;2023-02-14T06:52:57;7.03;;;3.60;;
11548;SDS011;61444;59.472;18.306;2023-02-14T06:55:06;7.67;;;3.27;;
11548;SDS011;61444;59.472;18.306;2023-02-14T06:57:17;5.40;;;2.93;;
11548;SDS011;61444;59.472;18.306;2023-02-14T06:59:27;5.23;;;3.03;;
11548;SDS011;61444;59.472;18.306;2023-02-14T07:01:36;4.43;;;2.67;;
11548;SDS011;61444;59.472;18.306;2023-02-14T07:03:44;8.03;;;3.17;;
11548;SDS011;61444;59.472;18.306;2023-02-14T07:05:53;5.47;;;3.03;;
11548;SDS011;61444;59.472;18.306;2023-02-14T07:08:07;5.50;;;3.30;;
11548;SDS011;61444;59.472;18.306;2023-02-14T07:10:16;8.00;;;3.80;;
11548;SDS011;61444;59.472;18.306;2023-02-14T07:12:26;5.20;;;3.10;;
11548;SDS011;61444;59.472;18.306;2023-02-14T07:14:36;6.03;;;3.47;;
11548;SDS011;61444;59.472;18.306;2023-02-14T07:16:44;4.70;;;2.80;;
11548;SDS011;61444;59.472;18.306;2023-02-14T07:18:53;4.93;;;2.80;;
11548;SDS011;61444;59.472;18.306;2023-02-14T07:21:02;5.57;;;2.77;;
11548;SDS011;61444;59.472;18.306;2023-02-14T07:23:11;5.00;;;2.60;;
11548;SDS011;61444;59.472;18.306;2023-02-14T07:25:20;3.40;;;2.27;;
11548;SDS011;61444;59.472;18.306;2023-02-14T07:27:28;6.30;;;2.77;;
11548;SDS011;61444;59.472;18.306;2023-02-14T07:29:38;3.30;;;2.43;;
11548;SDS011;61444;59.472;18.306;2023-02-14T07:31:47;3.47;;;2.47;;
11548;SDS011;61444;59.472;18.306;2023-02-14T07:33:56;4.77;;;2.80;;
11548;SDS011;61444;59.472;18.306;2023-02-14T07:36:07;4.07;;;2.50;;
11548;SDS011;61444;59.472;18.306;2023-02-14T07:38:16;4.17;;;2.60;;
11548;SDS011;61444;59.472;18.306;2023-02-14T07:40:24;4.70;;;2.40;;
11548;SDS011;61444;59.472;18.306;2023-02-14T07:42:35;5.03;;;2.77;;
11548;SDS011;61444;59.472;18.306;2023-02-14T07:44:46;7.40;;;3.67;;
11548;SDS011;61444;59.472;18.306;2023-02-14T07:46:57;6.10;;;4.03;;
11548;SDS011;61444;59.472;18.306;2023-02-14T07:49:06;7.70;;;4.43;;
11548;SDS011;61444;59.472;18.306;2023-02-14T07:51:14;5.83;;;4.00;;
11548;SDS011;61444;59.472;18.306;2023-02-14T07:53:23;3.80;;;2.73;;
11548;SDS011;61444;59.472;18.306;2023-02-14T07:55:31;4.77;;;2.10;;
11548;SDS011;61444;59.472;18.306;2023-02-14T07:57:42;4.97;;;2.13;;
11548;SDS011;61444;59.472;18.306;2023-02-14T07:59:51;2.40;;;1.97;;
11548;SDS011;61444;59.472;18.306;2023-02-14T08:02:00;2.77;;;1.83;;
11548;SDS011;61444;59.472;18.306;2023-02-14T08:04:09;1.80;;;1.43;;
11548;SDS011;61444;59.472;18.306;2023-02-14T08:06:19;3.40;;;1.80;;
11548;SDS011;61444;59.472;18.306;2023-02-14T08:08:28;5.00;;;1.47;;
11548;SDS011;61444;59.472;18.306;2023-02-14T08:10:41;4.53;;;1.83;;
11548;SDS011;61444;59.472;18.306;2023-02-14T08:12:49;5.03;;;2.10;;
11548;SDS011;61444;59.472;18.306;2023-02-14T08:15:08;3.10;;;2.00;;
11548;SDS011;61444;59.472;18.306;2023-02-14T08:17:34;3.97;;;1.90;;
11548;SDS011;61444;59.472;18.306;2023-02-14T08:19:43;2.47;;;1.70;;
11548;SDS011;61444;59.472;18.306;2023-02-14T08:21:51;4.27;;;1.80;;
11548;SDS011;61444;59.472;18.306;2023-02-14T08:24:00;2.30;;;2.00;;
11548;SDS011;61444;59.472;18.306;2023-02-14T08:26:09;2.43;;;1.73;;
11548;SDS011;61444;59.472;18.306;2023-02-14T08:28:18;2.03;;;1.50;;
11548;SDS011;61444;59.472;18.306;2023-02-14T08:30:31;4.47;;;1.77;;
11548;SDS011;61444;59.472;18.306;2023-02-14T08:32:40;3.13;;;1.60;;
11548;SDS011;61444;59.472;18.306;2023-02-14T08:34:48;2.63;;;1.53;;
11548;SDS011;61444;59.472;18.306;2023-02-14T08:36:57;2.43;;;1.80;;
11548;SDS011;61444;59.472;18.306;2023-02-14T08:39:08;3.20;;;1.80;;
11548;SDS011;61444;59.472;18.306;2023-02-14T08:41:17;4.87;;;1.87;;
11548;SDS011;61444;59.472;18.306;2023-02-14T08:43:26;1.93;;;1.73;;
11548;SDS011;61444;59.472;18.306;2023-02-14T08:45:39;2.73;;;1.90;;
11548;SDS011;61444;59.472;18.306;2023-02-14T08:47:48;3.50;;;1.60;;
11548;SDS011;61444;59.472;18.306;2023-02-14T08:49:57;2.70;;;1.60;;
11548;SDS011;61444;59.472;18.306;2023-02-14T08:52:05;4.73;;;1.83;;
11548;SDS011;61444;59.472;18.306;2023-02-14T08:54:14;2.83;;;1.80;;
11548;SDS011;61444;59.472;18.306;2023-02-14T08:56:23;3.10;;;1.77;;
11548;SDS011;61444;59.472;18.306;2023-02-14T08:58:32;3.43;;;1.90;;
11548;SDS011;61444;59.472;18.306;2023-02-14T09:00:43;3.77;;;1.90;;
11548;SDS011;61444;59.472;18.306;2023-02-14T09:02:51;2.97;;;1.73;;
11548;SDS011;61444;59.472;18.306;2023-02-14T09:05:00;3.43;;;1.77;;
11548;SDS011;61444;59.472;18.306;2023-02-14T09:07:09;3.07;;;1.97;;
11548;SDS011;61444;59.472;18.306;2023-02-14T09:09:18;5.60;;;2.23;;
11548;SDS011;61444;59.472;18.306;2023-02-14T09:11:27;4.07;;;2.10;;
11548;SDS011;61444;59.472;18.306;2023-02-14T09:13:35;5.63;;;2.30;;
11548;SDS011;61444;59.472;18.306;2023-02-14T09:15:45;6.90;;;3.10;;
11548;SDS011;61444;59.472;18.306;2023-02-14T09:17:54;3.97;;;2.07;;
11548;SDS011;61444;59.472;18.306;2023-02-14T09:20:03;2.57;;;1.97;;
11548;SDS011;61444;59.472;18.306;2023-02-14T09:22:12;3.73;;;2.20;;
11548;SDS011;61444;59.472;18.306;2023-02-14T09:24:21;4.23;;;2.13;;
11548;SDS011;61444;59.472;18.306;2023-02-14T09:26:29;3.83;;;2.07;;
11548;SDS011;61444;59.472;18.306;2023-02-14T09:28:39;5.33;;;1.80;;
11548;SDS011;61444;59.472;18.306;2023-02-14T09:30:50;6.63;;;1.90;;
11548;SDS011;61444;59.472;18.306;2023-02-14T09:32:59;4.33;;;1.83;;
11548;SDS011;61444;59.472;18.306;2023-02-14T09:35:10;2.80;;;1.87;;
11548;SDS011;61444;59.472;18.306;2023-02-14T09:37:36;3.97;;;1.63;;
11548;SDS011;61444;59.472;18.306;2023-02-14T09:40:03;3.90;;;2.00;;
11548;SDS011;61444;59.472;18.306;2023-02-14T09:44:40;6.60;;;1.70;;
11548;SDS011;61444;59.472;18.306;2023-02-14T09:46:54;4.77;;;2.13;;
11548;SDS011;61444;59.472;18.306;2023-02-14T09:49:04;3.10;;;1.87;;
11548;SDS011;61444;59.472;18.306;2023-02-14T09:51:18;3.33;;;1.87;;
11548;SDS011;61444;59.472;18.306;2023-02-14T09:53:29;4.57;;;1.77;;
11548;SDS011;61444;59.472;18.306;2023-02-14T09:55:41;4.50;;;2.60;;
11548;SDS011;61444;59.472;18.306;2023-02-14T09:57:57;4.83;;;2.37;;
11548;SDS011;61444;59.472;18.306;2023-02-14T10:00:13;7.67;;;3.30;;
11548;SDS011;61444;59.472;18.306;2023-02-14T10:02:29;5.20;;;3.20;;
11548;SDS011;61444;59.472;18.306;2023-02-14T10:04:41;3.93;;;2.43;;
11548;SDS011;61444;59.472;18.306;2023-02-14T10:06:56;3.97;;;2.40;;
11548;SDS011;61444;59.472;18.306;2023-02-14T10:09:09;5.23;;;2.20;;
11548;SDS011;61444;59.472;18.306;2023-02-14T10:11:22;7.27;;;2.17;;
11548;SDS011;61444;59.472;18.306;2023-02-14T10:13:34;2.50;;;1.97;;
11548;SDS011;61444;59.472;18.306;2023-02-14T10:15:46;4.97;;;2.77;;
11548;SDS011;61444;59.472;18.306;2023-02-14T10:17:57;3.47;;;3.00;;
11548;SDS011;61444;59.472;18.306;2023-02-14T10:20:19;4.00;;;2.50;;
11548;SDS011;61444;59.472;18.306;2023-02-14T10:22:31;4.33;;;2.60;;
11548;SDS011;61444;59.472;18.306;2023-02-14T10:24:44;4.63;;;2.43;;
11548;SDS011;61444;59.472;18.306;2023-02-14T10:26:56;4.60;;;2.60;;
11548;SDS011;61444;59.472;18.306;2023-02-14T10:29:22;5.67;;;2.30;;
11548;SDS011;61444;59.472;18.306;2023-02-14T10:31:34;4.83;;;2.37;;
11548;SDS011;61444;59.472;18.306;2023-02-14T10:33:48;2.63;;;2.13;;
11548;SDS011;61444;59.472;18.306;2023-02-14T10:36:03;4.27;;;2.00;;
11548;SDS011;61444;59.472;18.306;2023-02-14T10:38:16;2.97;;;2.27;;
11548;SDS011;61444;59.472;18.306;2023-02-14T10:40:40;3.77;;;2.50;;
11548;SDS011;61444;59.472;18.306;2023-02-14T10:42:54;6.33;;;2.67;;
11548;SDS011;61444;59.472;18.306;2023-02-14T10:45:10;5.17;;;2.50;;
11548;SDS011;61444;59.472;18.306;2023-02-14T10:47:24;3.70;;;2.37;;
11548;SDS011;61444;59.472;18.306;2023-02-14T10:49:38;4.63;;;2.27;;
11548;SDS011;61444;59.472;18.306;2023-02-14T10:51:49;3.30;;;2.33;;
11548;SDS011;61444;59.472;18.306;2023-02-14T10:54:03;4.23;;;2.00;;
11548;SDS011;61444;59.472;18.306;2023-02-14T10:56:19;3.07;;;1.90;;
11548;SDS011;61444;59.472;18.306;2023-02-14T10:58:30;2.60;;;1.83;;
11548;SDS011;61444;59.472;18.306;2023-02-14T11:00:49;3.57;;;1.93;;
11548;SDS011;61444;59.472;18.306;2023-02-14T11:03:00;3.90;;;1.80;;
11548;SDS011;61444;59.472;18.306;2023-02-14T11:05:18;3.10;;;1.60;;
11548;SDS011;61444;59.472;18.306;2023-02-14T11:07:31;4.07;;;1.63;;
11548;SDS011;61444;59.472;18.306;2023-02-14T11:09:39;2.83;;;1.90;;
11548;SDS011;61444;59.472;18.306;2023-02-14T11:11:50;2.20;;;1.80;;
11548;SDS011;61444;59.472;18.306;2023-02-14T11:13:59;3.40;;;1.73;;
11548;SDS011;61444;59.472;18.306;2023-02-14T11:16:30;3.80;;;1.60;;
11548;SDS011;61444;59.472;18.306;2023-02-14T11:18:40;2.60;;;1.60;;
11548;SDS011;61444;59.472;18.306;2023-02-14T11:20:59;4.30;;;1.53;;
11548;SDS011;61444;59.472;18.306;2023-02-14T11:23:18;2.77;;;1.10;;
11548;SDS011;61444;59.472;18.306;2023-02-14T11:25:28;2.63;;;0.90;;
11548;SDS011;61444;59.472;18.306;2023-02-14T11:27:36;3.73;;;1.20;;
11548;SDS011;61444;59.472;18.306;2023-02-14T11:29:46;2.63;;;1.10;;
11548;SDS011;61444;59.472;18.306;2023-02-14T11:32:04;1.97;;;1.20;;
11548;SDS011;61444;59.472;18.306;2023-02-14T11:34:22;1.80;;;0.90;;
11548;SDS011;61444;59.472;18.306;2023-02-14T11:36:38;1.67;;;0.90;;
11548;SDS011;61444;59.472;18.306;2023-02-14T11:38:53;3.07;;;1.20;;
11548;SDS011;61444;59.472;18.306;2023-02-14T11:41:03;4.20;;;0.97;;
11548;SDS011;61444;59.472;18.306;2023-02-14T11:43:19;2.90;;;0.90;;
11548;SDS011;61444;59.472;18.306;2023-02-14T11:45:30;2.10;;;1.07;;
11548;SDS011;61444;59.472;18.306;2023-02-14T11:47:39;4.33;;;1.37;;
11548;SDS011;61444;59.472;18.306;2023-02-14T11:49:55;3.30;;;1.50;;
11548;SDS011;61444;59.472;18.306;2023-02-14T11:52:08;2.53;;;0.90;;
11548;SDS011;61444;59.472;18.306;2023-02-14T11:54:24;1.93;;;1.03;;
11548;SDS011;61444;59.472;18.306;2023-02-14T11:56:48;3.47;;;1.20;;
11548;SDS011;61444;59.472;18.306;2023-02-14T11:58:59;2.53;;;1.30;;
11548;SDS011;61444;59.472;18.306;2023-02-14T12:01:09;2.43;;;1.00;;
11548;SDS011;61444;59.472;18.306;2023-02-14T12:03:19;2.03;;;1.27;;
11548;SDS011;61444;59.472;18.306;2023-02-14T12:05:29;2.33;;;1.00;;
11548;SDS011;61444;59.472;18.306;2023-02-14T12:07:39;3.53;;;1.20;;
11548;SDS011;61444;59.472;18.306;2023-02-14T12:10:03;5.13;;;0.90;;
11548;SDS011;61444;59.472;18.306;2023-02-14T12:12:17;1.93;;;1.10;;
11548;SDS011;61444;59.472;18.306;2023-02-14T12:14:27;2.33;;;1.00;;
11548;SDS011;61444;59.472;18.306;2023-02-14T12:16:37;2.00;;;0.90;;
11548;SDS011;61444;59.472;18.306;2023-02-14T12:18:50;3.47;;;1.30;;
11548;SDS011;61444;59.472;18.306;2023-02-14T12:21:03;5.80;;;1.00;;
11548;SDS011;61444;59.472;18.306;2023-02-14T12:23:21;1.30;;;0.87;;
11548;SDS011;61444;59.472;18.306;2023-02-14T12:25:34;2.07;;;0.80;;
11548;SDS011;61444;59.472;18.306;2023-02-14T12:27:55;1.53;;;0.70;;
11548;SDS011;61444;59.472;18.306;2023-02-14T12:30:10;5.47;;;0.90;;
11548;SDS011;61444;59.472;18.306;2023-02-14T12:32:22;2.10;;;0.93;;
11548;SDS011;61444;59.472;18.306;2023-02-14T12:34:31;1.33;;;0.73;;
11548;SDS011;61444;59.472;18.306;2023-02-14T12:36:47;1.80;;;0.90;;
11548;SDS011;61444;59.472;18.306;2023-02-14T12:39:01;1.30;;;1.03;;
11548;SDS011;61444;59.472;18.306;2023-02-14T12:41:17;1.43;;;0.93;;
11548;SDS011;61444;59.472;18.306;2023-02-14T12:43:33;1.60;;;0.77;;
11548;SDS011;61444;59.472;18.306;2023-02-14T12:45:56;1.17;;;0.67;;
11548;SDS011;61444;59.472;18.306;2023-02-14T12:48:08;1.07;;;0.70;;
11548;SDS011;61444;59.472;18.306;2023-02-14T12:50:30;2.33;;;0.90;;
11548;SDS011;61444;59.472;18.306;2023-02-14T12:57:38;2.07;;;1.20;;
11548;SDS011;61444;59.472;18.306;2023-02-14T12:59:51;3.10;;;1.10;;
11548;SDS011;61444;59.472;18.306;2023-02-14T13:06:55;1.33;;;1.00;;
11548;SDS011;61444;59.472;18.306;2023-02-14T13:09:14;1.33;;;0.90;;
11548;SDS011;61444;59.472;18.306;2023-02-14T13:11:28;1.77;;;0.90;;
11548;SDS011;61444;59.472;18.306;2023-02-14T13:13:47;1.57;;;0.90;;
11548;SDS011;61444;59.472;18.306;2023-02-14T13:16:02;1.57;;;1.10;;
11548;SDS011;61444;59.472;18.306;2023-02-14T13:18:16;2.20;;;0.80;;
11548;SDS011;61444;59.472;18.306;2023-02-14T13:20:38;1.47;;;0.90;;
11548;SDS011;61444;59.472;18.306;2023-02-14T13:22:48;3.07;;;0.90;;
11548;SDS011;61444;59.472;18.306;2023-02-14T13:24:57;2.73;;;1.03;;